sensor_id;sensor_type;location;lat;lon;timestamp;pressure;altitude;pressure_sealevel;temperature;humidity
58243;BME280;50118;53.232;8.252;2023-07-24T00:00:22;100183.22;;;16.98;100.00
58243;BME280;50118;53.232;8.252;2023-07-24T00:02:48;100176.78;;;16.93;100.00
58243;BME280;50118;53.232;8.252;2023-07-24T00:05:13;100174.72;;;16.95;100.00
58243;BME280;50118;53.232;8.252;2023-07-24T00:07:39;100185.88;;;16.92;100.00
58243;BME280;50118;53.232;8.252;2023-07-24T00:10:04;100178.84;;;16.91;100.00
58243;BME280;50118;53.232;8.252;2023-07-24T00:12:30;100162.06;;;16.89;100.00
58243;BME280;50118;53.232;8.252;2023-07-24T00:14:55;100163.91;;;16.88;100.00
58243;BME280;50118;53.232;8.252;2023-07-24T00:17:21;100157.66;;;16.81;100.00
58243;BME280;50118;53.232;8.252;2023-07-24T00:19:47;100157.66;;;16.81;100.00
58243;BME280;50118;53.232;8.252;2023-07-24T00:22:12;100164.69;;;16.75;100.00
58243;BME280;50118;53.232;8.252;2023-07-24T00:24:37;100156.59;;;16.75;100.00
58243;BME280;50118;53.232;8.252;2023-07-24T00:27:03;100164.66;;;16.69;100.00
58243;BME280;50118;53.232;8.252;2023-07-24T00:29:29;100162.00;;;16.75;100.00
58243;BME280;50118;53.232;8.252;2023-07-24T00:31:54;100161.13;;;16.75;100.00
58243;BME280;50118;53.232;8.252;2023-07-24T00:34:20;100166.91;;;16.72;100.00
58243;BME280;50118;53.232;8.252;2023-07-24T00:36:45;100167.09;;;16.64;100.00
58243;BME280;50118;53.232;8.252;2023-07-24T00:39:11;100172.25;;;16.65;100.00
58243;BME280;50118;53.232;8.252;2023-07-24T00:41:36;100157.94;;;16.58;100.00
58243;BME280;50118;53.232;8.252;2023-07-24T00:44:02;100168.69;;;16.58;100.00
58243;BME280;50118;53.232;8.252;2023-07-24T00:46:28;100163.75;;;16.61;100.00
58243;BME280;50118;53.232;8.252;2023-07-24T00:48:58;100163.31;;;16.58;100.00
58243;BME280;50118;53.232;8.252;2023-07-24T00:51:26;100168.31;;;16.61;100.00
58243;BME280;50118;53.232;8.252;2023-07-24T00:53:57;100172.44;;;16.57;100.00
58243;BME280;50118;53.232;8.252;2023-07-24T00:56:25;100158.34;;;16.48;100.00
58243;BME280;50118;53.232;8.252;2023-07-24T00:58:52;100159.53;;;16.46;100.00
58243;BME280;50118;53.232;8.252;2023-07-24T01:01:21;100162.63;;;16.42;100.00
58243;BME280;50118;53.232;8.252;2023-07-24T01:03:46;100162.81;;;16.41;100.00
58243;BME280;50118;53.232;8.252;2023-07-24T01:06:12;100158.28;;;16.41;100.00
58243;BME280;50118;53.232;8.252;2023-07-24T01:08:37;100162.81;;;16.41;100.00
58243;BME280;50118;53.232;8.252;2023-07-24T01:11:17;100167.38;;;16.40;100.00
58243;BME280;50118;53.232;8.252;2023-07-24T01:13:56;100164.06;;;16.38;100.00
58243;BME280;50118;53.232;8.252;2023-07-24T01:16:22;100160.31;;;16.39;100.00
58243;BME280;50118;53.232;8.252;2023-07-24T01:18:51;100161.16;;;16.40;100.00
58243;BME280;50118;53.232;8.252;2023-07-24T01:21:29;100169.44;;;16.38;100.00
58243;BME280;50118;53.232;8.252;2023-07-24T01:26:29;100162.84;;;16.48;100.00
58243;BME280;50118;53.232;8.252;2023-07-24T01:28:55;100169.91;;;16.49;100.00
58243;BME280;50118;53.232;8.252;2023-07-24T01:31:21;100170.53;;;16.51;100.00
58243;BME280;50118;53.232;8.252;2023-07-24T01:33:46;100171.53;;;16.50;100.00
58243;BME280;50118;53.232;8.252;2023-07-24T01:36:13;100162.06;;;16.54;100.00
58243;BME280;50118;53.232;8.252;2023-07-24T01:38:40;100168.69;;;16.58;100.00
58243;BME280;50118;53.232;8.252;2023-07-24T01:41:06;100171.78;;;16.55;100.00
58243;BME280;50118;53.232;8.252;2023-07-24T01:43:32;100162.69;;;16.56;100.00
58243;BME280;50118;53.232;8.252;2023-07-24T01:45:58;100157.56;;;16.61;100.00
58243;BME280;50118;53.232;8.252;2023-07-24T01:48:24;100157.94;;;16.58;100.00
58243;BME280;50118;53.232;8.252;2023-07-24T01:50:49;100164.56;;;16.55;100.00
58243;BME280;50118;53.232;8.252;2023-07-24T01:53:15;100162.13;;;16.60;100.00
58243;BME280;50118;53.232;8.252;2023-07-24T01:55:41;100155.41;;;16.50;100.00
58243;BME280;50118;53.232;8.252;2023-07-24T01:58:06;100153.94;;;16.40;100.00
58243;BME280;50118;53.232;8.252;2023-07-24T02:00:32;100153.94;;;16.40;100.00
58243;BME280;50118;53.232;8.252;2023-07-24T02:02:57;100146.25;;;16.37;100.00
58243;BME280;50118;53.232;8.252;2023-07-24T02:05:23;100143.72;;;16.29;100.00
58243;BME280;50118;53.232;8.252;2023-07-24T02:07:48;100150.38;;;16.33;100.00
58243;BME280;50118;53.232;8.252;2023-07-24T02:10:14;100141.50;;;16.39;100.00
58243;BME280;50118;53.232;8.252;2023-07-24T02:12:40;100139.03;;;16.38;100.00
58243;BME280;50118;53.232;8.252;2023-07-24T02:15:06;100135.34;;;16.46;100.00
58243;BME280;50118;53.232;8.252;2023-07-24T02:17:32;100140.09;;;16.43;100.00
58243;BME280;50118;53.232;8.252;2023-07-24T02:19:57;100127.50;;;16.51;100.00
58243;BME280;50118;53.232;8.252;2023-07-24T02:22:24;100136.81;;;16.48;100.00
58243;BME280;50118;53.232;8.252;2023-07-24T02:24:49;100131.03;;;16.51;100.00
58243;BME280;50118;53.232;8.252;2023-07-24T02:27:25;100143.66;;;16.51;100.00
58243;BME280;50118;53.232;8.252;2023-07-24T02:29:52;100129.00;;;16.53;100.00
58243;BME280;50118;53.232;8.252;2023-07-24T02:32:17;100127.50;;;16.51;100.00
58243;BME280;50118;53.232;8.252;2023-07-24T02:34:51;100135.59;;;16.51;100.00
58243;BME280;50118;53.232;8.252;2023-07-24T02:37:17;100133.09;;;16.49;100.00
58243;BME280;50118;53.232;8.252;2023-07-24T02:39:43;100131.03;;;16.51;100.00
58243;BME280;50118;53.232;8.252;2023-07-24T02:42:08;100117.56;;;16.44;100.00
58243;BME280;50118;53.232;8.252;2023-07-24T02:44:34;100122.31;;;16.42;100.00
58243;BME280;50118;53.232;8.252;2023-07-24T02:47:00;100118.38;;;16.38;100.00
58243;BME280;50118;53.232;8.252;2023-07-24T02:49:26;100119.56;;;16.36;100.00
58243;BME280;50118;53.232;8.252;2023-07-24T02:51:51;100116.84;;;16.29;100.00
58243;BME280;50118;53.232;8.252;2023-07-24T02:54:17;100117.03;;;16.21;100.00
58243;BME280;50118;53.232;8.252;2023-07-24T02:56:42;100108.31;;;16.19;100.00
58243;BME280;50118;53.232;8.252;2023-07-24T02:59:08;100112.44;;;16.15;100.00
58243;BME280;50118;53.232;8.252;2023-07-24T03:01:36;100113.59;;;16.05;100.00
58243;BME280;50118;53.232;8.252;2023-07-24T03:04:02;100121.81;;;15.97;100.00
58243;BME280;50118;53.232;8.252;2023-07-24T03:06:28;100120.16;;;15.96;100.00
58243;BME280;50118;53.232;8.252;2023-07-24T03:08:53;100118.25;;;15.90;100.00
58243;BME280;50118;53.232;8.252;2023-07-24T03:11:19;100117.38;;;15.83;100.00
58243;BME280;50118;53.232;8.252;2023-07-24T03:13:44;100116.94;;;15.79;100.00
58243;BME280;50118;53.232;8.252;2023-07-24T03:16:10;100115.72;;;15.82;100.00
58243;BME280;50118;53.232;8.252;2023-07-24T03:18:35;100116.84;;;15.73;100.00
58243;BME280;50118;53.232;8.252;2023-07-24T03:21:01;100119.28;;;15.67;100.00
58243;BME280;50118;53.232;8.252;2023-07-24T03:23:28;100120.06;;;15.61;100.00
58243;BME280;50118;53.232;8.252;2023-07-24T03:25:53;100117.16;;;15.63;100.00
58243;BME280;50118;53.232;8.252;2023-07-24T03:28:19;100120.06;;;15.61;100.00
58243;BME280;50118;53.232;8.252;2023-07-24T03:30:44;100111.47;;;15.73;100.00
58243;BME280;50118;53.232;8.252;2023-07-24T03:33:10;100110.97;;;15.62;100.00
58243;BME280;50118;53.232;8.252;2023-07-24T03:35:37;100115.59;;;15.68;100.00
58243;BME280;50118;53.232;8.252;2023-07-24T03:38:03;100109.59;;;15.66;100.00
58243;BME280;50118;53.232;8.252;2023-07-24T03:40:28;100119.66;;;15.64;100.00
58243;BME280;50118;53.232;8.252;2023-07-24T03:42:54;100123.81;;;15.67;100.00
58243;BME280;50118;53.232;8.252;2023-07-24T03:45:19;100111.22;;;15.67;100.00
58243;BME280;50118;53.232;8.252;2023-07-24T03:47:47;100125.09;;;15.71;100.00
58243;BME280;50118;53.232;8.252;2023-07-24T03:50:13;100127.97;;;15.69;100.00
58243;BME280;50118;53.232;8.252;2023-07-24T03:52:38;100127.78;;;15.71;100.00
58243;BME280;50118;53.232;8.252;2023-07-24T03:55:04;100121.03;;;15.75;100.00
58243;BME280;50118;53.232;8.252;2023-07-24T03:57:30;100123.13;;;15.80;100.00
58243;BME280;50118;53.232;8.252;2023-07-24T03:59:55;100121.66;;;15.77;100.00
58243;BME280;50118;53.232;8.252;2023-07-24T04:02:21;100120.69;;;15.85;100.00
58243;BME280;50118;53.232;8.252;2023-07-24T04:04:47;100124.06;;;15.94;100.00
58243;BME280;50118;53.232;8.252;2023-07-24T04:07:13;100122.03;;;15.96;100.00
58243;BME280;50118;53.232;8.252;2023-07-24T04:09:38;100127.81;;;15.99;100.00
58243;BME280;50118;53.232;8.252;2023-07-24T04:12:04;100123.09;;;16.01;100.00
58243;BME280;50118;53.232;8.252;2023-07-24T04:14:30;100125.00;;;16.08;100.00
58243;BME280;50118;53.232;8.252;2023-07-24T04:16:55;100117.38;;;16.11;100.00
58243;BME280;50118;53.232;8.252;2023-07-24T04:19:21;100120.53;;;16.21;100.00
58243;BME280;50118;53.232;8.252;2023-07-24T04:21:46;100112.66;;;16.20;100.00
58243;BME280;50118;53.232;8.252;2023-07-24T04:24:11;100108.56;;;16.24;100.00
58243;BME280;50118;53.232;8.252;2023-07-24T04:26:37;100105.28;;;16.29;100.00
58243;BME280;50118;53.232;8.252;2023-07-24T04:29:02;100100.72;;;16.29;100.00
58243;BME280;50118;53.232;8.252;2023-07-24T04:31:28;100101.19;;;16.39;100.00
58243;BME280;50118;53.232;8.252;2023-07-24T04:33:53;100106.56;;;16.39;100.00
58243;BME280;50118;53.232;8.252;2023-07-24T04:36:19;100095.06;;;16.52;100.00
58243;BME280;50118;53.232;8.252;2023-07-24T04:38:44;100101.13;;;16.68;100.00
58243;BME280;50118;53.232;8.252;2023-07-24T04:41:12;100098.00;;;16.64;100.00
58243;BME280;50118;53.232;8.252;2023-07-24T04:43:37;100093.81;;;16.55;100.00
58243;BME280;50118;53.232;8.252;2023-07-24T04:46:28;100081.03;;;16.57;100.00
58243;BME280;50118;53.232;8.252;2023-07-24T04:48:53;100071.53;;;16.61;100.00
58243;BME280;50118;53.232;8.252;2023-07-24T04:51:22;100071.28;;;16.56;100.00
58243;BME280;50118;53.232;8.252;2023-07-24T04:53:48;100072.75;;;16.52;100.00
58243;BME280;50118;53.232;8.252;2023-07-24T04:56:13;100071.91;;;16.58;100.00
58243;BME280;50118;53.232;8.252;2023-07-24T04:58:39;100069.41;;;16.50;100.00
58243;BME280;50118;53.232;8.252;2023-07-24T05:01:07;100061.97;;;16.52;100.00
58243;BME280;50118;53.232;8.252;2023-07-24T05:03:33;100057.78;;;16.42;100.00
58243;BME280;50118;53.232;8.252;2023-07-24T05:06:19;100064.84;;;16.43;100.00
58243;BME280;50118;53.232;8.252;2023-07-24T05:08:53;100056.78;;;16.43;100.00
58243;BME280;50118;53.232;8.252;2023-07-24T05:11:21;100059.06;;;16.47;100.00
58243;BME280;50118;53.232;8.252;2023-07-24T05:13:46;100059.47;;;16.43;100.00
58243;BME280;50118;53.232;8.252;2023-07-24T05:16:12;100068.16;;;16.46;100.00
58243;BME280;50118;53.232;8.252;2023-07-24T05:18:37;100073.72;;;16.44;100.00
58243;BME280;50118;53.232;8.252;2023-07-24T05:21:03;100073.69;;;16.37;100.00
58243;BME280;50118;53.232;8.252;2023-07-24T05:23:28;100077.00;;;16.39;100.00
58243;BME280;50118;53.232;8.252;2023-07-24T05:26:01;100080.34;;;16.41;100.00
58243;BME280;50118;53.232;8.252;2023-07-24T05:28:28;100072.75;;;16.52;100.00
58243;BME280;50118;53.232;8.252;2023-07-24T05:30:54;100063.63;;;16.53;100.00
58243;BME280;50118;53.232;8.252;2023-07-24T05:33:20;100069.03;;;16.59;100.00
58243;BME280;50118;53.232;8.252;2023-07-24T05:35:45;100058.25;;;16.53;100.00
58243;BME280;50118;53.232;8.252;2023-07-24T05:38:11;100060.94;;;16.53;100.00
58243;BME280;50118;53.232;8.252;2023-07-24T05:40:37;100057.22;;;16.54;100.00
58243;BME280;50118;53.232;8.252;2023-07-24T05:43:02;100051.69;;;16.62;100.00
58243;BME280;50118;53.232;8.252;2023-07-24T05:45:29;100055.78;;;16.58;100.00
58243;BME280;50118;53.232;8.252;2023-07-24T05:47:54;100061.56;;;16.55;100.00
58243;BME280;50118;53.232;8.252;2023-07-24T05:50:20;100049.00;;;16.62;100.00
58243;BME280;50118;53.232;8.252;2023-07-24T05:52:49;100046.31;;;16.62;100.00
58243;BME280;50118;53.232;8.252;2023-07-24T05:55:17;100047.94;;;16.63;100.00
58243;BME280;50118;53.232;8.252;2023-07-24T05:57:42;100047.13;;;16.62;100.00
58243;BME280;50118;53.232;8.252;2023-07-24T06:00:08;100058.91;;;16.68;100.00
58243;BME280;50118;53.232;8.252;2023-07-24T06:02:34;100047.94;;;16.63;100.00
58243;BME280;50118;53.232;8.252;2023-07-24T06:05:02;100056.63;;;16.65;100.00
58243;BME280;50118;53.232;8.252;2023-07-24T06:07:27;100052.31;;;16.71;100.00
58243;BME280;50118;53.232;8.252;2023-07-24T06:09:53;100048.38;;;16.73;100.00
58243;BME280;50118;53.232;8.252;2023-07-24T06:12:28;100048.59;;;16.78;100.00
58243;BME280;50118;53.232;8.252;2023-07-24T06:14:53;100044.34;;;16.84;100.00
58243;BME280;50118;53.232;8.252;2023-07-24T06:17:19;100055.72;;;16.86;100.00
58243;BME280;50118;53.232;8.252;2023-07-24T06:19:44;100052.56;;;16.83;100.00
58243;BME280;50118;53.232;8.252;2023-07-24T06:22:10;100045.28;;;16.70;100.00
58243;BME280;50118;53.232;8.252;2023-07-24T06:24:43;100047.59;;;16.79;100.00
58243;BME280;50118;53.232;8.252;2023-07-24T06:27:08;100050.06;;;16.81;100.00
58243;BME280;50118;53.232;8.252;2023-07-24T06:29:34;100046.34;;;16.75;100.00
58243;BME280;50118;53.232;8.252;2023-07-24T06:31:59;100047.56;;;16.73;100.00
58243;BME280;50118;53.232;8.252;2023-07-24T06:34:31;100057.31;;;16.74;100.00
58243;BME280;50118;53.232;8.252;2023-07-24T06:36:56;100046.56;;;16.74;100.00
58243;BME280;50118;53.232;8.252;2023-07-24T06:39:22;100040.72;;;16.64;100.00
58243;BME280;50118;53.232;8.252;2023-07-24T06:41:47;100050.63;;;16.63;100.00
58243;BME280;50118;53.232;8.252;2023-07-24T06:44:12;100051.69;;;16.62;100.00
58243;BME280;50118;53.232;8.252;2023-07-24T06:46:38;100033.47;;;16.64;100.00
58243;BME280;50118;53.232;8.252;2023-07-24T06:49:04;100052.09;;;16.66;100.00
58243;BME280;50118;53.232;8.252;2023-07-24T06:51:29;100057.47;;;16.66;100.00
58243;BME280;50118;53.232;8.252;2023-07-24T06:53:55;100060.38;;;16.64;100.00
58243;BME280;50118;53.232;8.252;2023-07-24T06:56:23;100044.69;;;16.74;100.00
58243;BME280;50118;53.232;8.252;2023-07-24T06:58:49;100051.72;;;16.82;100.00
58243;BME280;50118;53.232;8.252;2023-07-24T07:01:14;100052.56;;;16.83;100.00
58243;BME280;50118;53.232;8.252;2023-07-24T07:03:40;100066.22;;;16.81;100.00
58243;BME280;50118;53.232;8.252;2023-07-24T07:06:05;100070.78;;;16.80;100.00
58243;BME280;50118;53.232;8.252;2023-07-24T07:08:31;100060.81;;;16.74;100.00
58243;BME280;50118;53.232;8.252;2023-07-24T07:10:59;100071.44;;;16.89;100.00
58243;BME280;50118;53.232;8.252;2023-07-24T07:13:25;100072.06;;;16.91;100.00
58243;BME280;50118;53.232;8.252;2023-07-24T07:15:50;100063.41;;;16.96;100.00
58243;BME280;50118;53.232;8.252;2023-07-24T07:18:16;100056.16;;;17.03;100.00
58243;BME280;50118;53.232;8.252;2023-07-24T07:20:50;100058.44;;;16.99;100.00
58243;BME280;50118;53.232;8.252;2023-07-24T07:23:16;100055.13;;;17.11;100.00
58243;BME280;50118;53.232;8.252;2023-07-24T07:25:42;100056.81;;;17.25;100.00
58243;BME280;50118;53.232;8.252;2023-07-24T07:28:10;100052.06;;;17.34;100.00
58243;BME280;50118;53.232;8.252;2023-07-24T07:30:36;100049.34;;;17.74;100.00
58243;BME280;50118;53.232;8.252;2023-07-24T07:33:02;100053.41;;;18.23;100.00
58243;BME280;50118;53.232;8.252;2023-07-24T07:35:28;100049.09;;;18.61;100.00
58243;BME280;50118;53.232;8.252;2023-07-24T07:37:54;100049.44;;;18.78;100.00
58243;BME280;50118;53.232;8.252;2023-07-24T07:40:19;100049.03;;;18.74;100.00
58243;BME280;50118;53.232;8.252;2023-07-24T07:42:44;100054.88;;;19.10;100.00
58243;BME280;50118;53.232;8.252;2023-07-24T07:45:10;100054.06;;;19.09;100.00
58243;BME280;50118;53.232;8.252;2023-07-24T07:47:36;100057.16;;;19.13;100.00
58243;BME280;50118;53.232;8.252;2023-07-24T07:50:01;100053.16;;;18.90;100.00
58243;BME280;50118;53.232;8.252;2023-07-24T07:52:27;100058.66;;;19.09;100.00
58243;BME280;50118;53.232;8.252;2023-07-24T07:54:52;100054.31;;;19.01;100.00
58243;BME280;50118;53.232;8.252;2023-07-24T07:57:17;100047.53;;;19.23;100.00
58243;BME280;50118;53.232;8.252;2023-07-24T07:59:43;100052.59;;;19.38;100.00
58243;BME280;50118;53.232;8.252;2023-07-24T08:02:08;100054.38;;;19.51;100.00
58243;BME280;50118;53.232;8.252;2023-07-24T08:04:34;100054.16;;;19.28;100.00
58243;BME280;50118;53.232;8.252;2023-07-24T08:06:59;100046.56;;;19.68;100.00
58243;BME280;50118;53.232;8.252;2023-07-24T08:09:25;100045.31;;;19.64;100.00
58243;BME280;50118;53.232;8.252;2023-07-24T08:11:51;100029.97;;;19.39;100.00
58243;BME280;50118;53.232;8.252;2023-07-24T08:14:17;100033.16;;;19.55;100.00
58243;BME280;50118;53.232;8.252;2023-07-24T08:16:43;100031.91;;;20.01;100.00
58243;BME280;50118;53.232;8.252;2023-07-24T08:19:08;100035.16;;;20.77;100.00
58243;BME280;50118;53.232;8.252;2023-07-24T08:21:34;100034.84;;;20.67;100.00
58243;BME280;50118;53.232;8.252;2023-07-24T08:24:01;100044.88;;;20.97;100.00
58243;BME280;50118;53.232;8.252;2023-07-24T08:26:27;100034.34;;;20.88;100.00
58243;BME280;50118;53.232;8.252;2023-07-24T08:28:53;100036.44;;;20.56;100.00
58243;BME280;50118;53.232;8.252;2023-07-24T08:31:18;100036.72;;;20.18;100.00
58243;BME280;50118;53.232;8.252;2023-07-24T08:33:44;100029.19;;;20.20;100.00
58243;BME280;50118;53.232;8.252;2023-07-24T08:36:09;100025.31;;;19.72;100.00
58243;BME280;50118;53.232;8.252;2023-07-24T08:38:36;100037.00;;;19.40;100.00
58243;BME280;50118;53.232;8.252;2023-07-24T08:41:10;100037.75;;;19.29;100.00
58243;BME280;50118;53.232;8.252;2023-07-24T08:43:38;100040.63;;;19.02;100.00
58243;BME280;50118;53.232;8.252;2023-07-24T08:46:04;100041.66;;;19.01;100.00
58243;BME280;50118;53.232;8.252;2023-07-24T08:48:32;100028.16;;;19.01;100.00
58243;BME280;50118;53.232;8.252;2023-07-24T08:51:01;100033.38;;;19.28;100.00
58243;BME280;50118;53.232;8.252;2023-07-24T08:53:29;100036.75;;;19.17;100.00
58243;BME280;50118;53.232;8.252;2023-07-24T08:55:56;100035.47;;;19.26;100.00
58243;BME280;50118;53.232;8.252;2023-07-24T08:58:22;100030.22;;;19.06;100.00
58243;BME280;50118;53.232;8.252;2023-07-24T09:00:47;100030.63;;;19.03;100.00
58243;BME280;50118;53.232;8.252;2023-07-24T09:03:13;100034.47;;;18.89;100.00
58243;BME280;50118;53.232;8.252;2023-07-24T09:05:38;100036.59;;;19.12;100.00
58243;BME280;50118;53.232;8.252;2023-07-24T09:08:04;100035.13;;;19.16;100.00
58243;BME280;50118;53.232;8.252;2023-07-24T09:10:29;100032.94;;;19.31;100.00
58243;BME280;50118;53.232;8.252;2023-07-24T09:13:02;100025.91;;;20.18;100.00
58243;BME280;50118;53.232;8.252;2023-07-24T09:15:38;100020.28;;;20.98;100.00
58243;BME280;50118;53.232;8.252;2023-07-24T09:20:41;100023.38;;;22.20;86.78
58243;BME280;50118;53.232;8.252;2023-07-24T09:23:08;100026.31;;;22.30;85.96
58243;BME280;50118;53.232;8.252;2023-07-24T09:25:35;100017.13;;;22.31;84.69
58243;BME280;50118;53.232;8.252;2023-07-24T09:28:01;100013.28;;;22.04;88.38
58243;BME280;50118;53.232;8.252;2023-07-24T09:30:26;100022.44;;;22.26;87.50
58243;BME280;50118;53.232;8.252;2023-07-24T09:32:53;100026.91;;;22.44;86.75
58243;BME280;50118;53.232;8.252;2023-07-24T09:35:19;100012.84;;;22.93;82.95
58243;BME280;50118;53.232;8.252;2023-07-24T09:37:45;100022.47;;;23.63;82.54
58243;BME280;50118;53.232;8.252;2023-07-24T09:40:11;100013.13;;;24.15;80.19
58243;BME280;50118;53.232;8.252;2023-07-24T09:42:38;100010.81;;;24.51;74.83
58243;BME280;50118;53.232;8.252;2023-07-24T09:45:06;100013.19;;;24.42;75.09
58243;BME280;50118;53.232;8.252;2023-07-24T09:47:34;100013.44;;;24.41;76.27
58243;BME280;50118;53.232;8.252;2023-07-24T09:49:59;100009.53;;;24.32;73.60
58243;BME280;50118;53.232;8.252;2023-07-24T09:52:29;100010.91;;;24.34;76.66
58243;BME280;50118;53.232;8.252;2023-07-24T09:57:24;100009.75;;;23.69;75.30
58243;BME280;50118;53.232;8.252;2023-07-24T09:59:51;100011.41;;;23.70;74.76
58243;BME280;50118;53.232;8.252;2023-07-24T10:02:18;100011.75;;;23.57;78.09
58243;BME280;50118;53.232;8.252;2023-07-24T10:04:44;100001.56;;;23.30;78.73
58243;BME280;50118;53.232;8.252;2023-07-24T10:07:09;99997.28;;;23.90;74.93
58243;BME280;50118;53.232;8.252;2023-07-24T10:09:35;99988.56;;;24.54;77.99
58243;BME280;50118;53.232;8.252;2023-07-24T10:12:02;99994.28;;;24.80;72.93
58243;BME280;50118;53.232;8.252;2023-07-24T10:14:28;99983.50;;;25.65;68.82
58243;BME280;50118;53.232;8.252;2023-07-24T10:16:56;99982.84;;;25.43;70.18
58243;BME280;50118;53.232;8.252;2023-07-24T10:19:21;99981.38;;;25.72;68.02
58243;BME280;50118;53.232;8.252;2023-07-24T10:21:48;99987.69;;;25.78;69.14
58243;BME280;50118;53.232;8.252;2023-07-24T10:24:15;99972.56;;;25.60;66.56
58243;BME280;50118;53.232;8.252;2023-07-24T10:26:41;99985.84;;;25.14;64.25
58243;BME280;50118;53.232;8.252;2023-07-24T10:29:06;99981.00;;;25.21;65.57
58243;BME280;50118;53.232;8.252;2023-07-24T10:31:32;99979.78;;;25.82;65.44
58243;BME280;50118;53.232;8.252;2023-07-24T10:34:07;99975.03;;;26.15;66.70
58243;BME280;50118;53.232;8.252;2023-07-24T10:36:34;99977.81;;;26.30;63.82
58243;BME280;50118;53.232;8.252;2023-07-24T10:39:00;99974.63;;;26.59;61.91
58243;BME280;50118;53.232;8.252;2023-07-24T10:41:37;99973.88;;;27.35;61.50
58243;BME280;50118;53.232;8.252;2023-07-24T10:44:03;99975.69;;;26.47;65.47
58243;BME280;50118;53.232;8.252;2023-07-24T10:46:55;99964.63;;;26.01;62.35
58243;BME280;50118;53.232;8.252;2023-07-24T10:49:21;99958.44;;;25.68;63.17
58243;BME280;50118;53.232;8.252;2023-07-24T10:51:47;99962.13;;;25.47;62.61
58243;BME280;50118;53.232;8.252;2023-07-24T10:54:12;99962.00;;;25.74;63.64
58243;BME280;50118;53.232;8.252;2023-07-24T10:56:38;99958.22;;;26.49;60.30
58243;BME280;50118;53.232;8.252;2023-07-24T10:59:04;99953.31;;;26.61;61.18
58243;BME280;50118;53.232;8.252;2023-07-24T11:01:31;99957.47;;;26.84;60.17
58243;BME280;50118;53.232;8.252;2023-07-24T11:03:56;99946.19;;;26.29;61.91
58243;BME280;50118;53.232;8.252;2023-07-24T11:06:22;99954.63;;;26.27;61.38
58243;BME280;50118;53.232;8.252;2023-07-24T11:08:55;99950.94;;;26.95;59.33
58243;BME280;50118;53.232;8.252;2023-07-24T11:11:22;99943.41;;;26.14;60.81
58243;BME280;50118;53.232;8.252;2023-07-24T11:13:48;99945.03;;;26.15;60.35
58243;BME280;50118;53.232;8.252;2023-07-24T11:16:14;99939.78;;;25.98;57.72
58243;BME280;50118;53.232;8.252;2023-07-24T11:18:47;99934.91;;;26.15;59.05
58243;BME280;50118;53.232;8.252;2023-07-24T11:21:12;99940.63;;;25.56;59.38
58243;BME280;50118;53.232;8.252;2023-07-24T11:23:45;99935.16;;;25.50;62.09
58243;BME280;50118;53.232;8.252;2023-07-24T11:26:10;99925.47;;;25.75;60.08
58243;BME280;50118;53.232;8.252;2023-07-24T11:28:40;99923.44;;;25.50;61.64
58243;BME280;50118;53.232;8.252;2023-07-24T11:31:05;99928.69;;;26.25;58.17
58243;BME280;50118;53.232;8.252;2023-07-24T11:33:31;99929.25;;;26.47;56.63
58243;BME280;50118;53.232;8.252;2023-07-24T11:35:57;99928.72;;;26.35;56.96
58243;BME280;50118;53.232;8.252;2023-07-24T11:38:22;99932.09;;;26.89;54.32
58243;BME280;50118;53.232;8.252;2023-07-24T11:40:49;99936.06;;;25.61;56.81
58243;BME280;50118;53.232;8.252;2023-07-24T11:43:20;99936.69;;;25.79;59.41
58243;BME280;50118;53.232;8.252;2023-07-24T11:45:47;99935.09;;;26.77;56.00
58243;BME280;50118;53.232;8.252;2023-07-24T11:48:17;99932.53;;;26.34;57.53
58243;BME280;50118;53.232;8.252;2023-07-24T11:50:44;99930.41;;;27.29;56.92
58243;BME280;50118;53.232;8.252;2023-07-24T11:53:36;99922.03;;;27.85;51.69
58243;BME280;50118;53.232;8.252;2023-07-24T11:56:13;99917.31;;;26.84;54.41
58243;BME280;50118;53.232;8.252;2023-07-24T11:58:39;99916.66;;;26.11;57.92
58243;BME280;50118;53.232;8.252;2023-07-24T12:01:04;99911.44;;;25.46;59.60
58243;BME280;50118;53.232;8.252;2023-07-24T12:03:30;99918.44;;;25.89;59.12
58243;BME280;50118;53.232;8.252;2023-07-24T12:05:55;99914.19;;;25.51;57.42
58243;BME280;50118;53.232;8.252;2023-07-24T12:08:30;99917.19;;;26.13;58.53
58243;BME280;50118;53.232;8.252;2023-07-24T12:10:56;99927.13;;;26.55;56.47
58243;BME280;50118;53.232;8.252;2023-07-24T12:13:22;99920.63;;;25.87;56.80
58243;BME280;50118;53.232;8.252;2023-07-24T12:15:48;99919.31;;;25.95;59.49
58243;BME280;50118;53.232;8.252;2023-07-24T12:18:14;99927.06;;;25.23;58.53
58243;BME280;50118;53.232;8.252;2023-07-24T12:20:39;99915.81;;;24.50;59.46
58243;BME280;50118;53.232;8.252;2023-07-24T12:23:05;99905.63;;;25.32;61.35
58243;BME280;50118;53.232;8.252;2023-07-24T12:25:30;99893.38;;;25.34;59.80
58243;BME280;50118;53.232;8.252;2023-07-24T12:27:56;99879.81;;;25.50;57.68
58243;BME280;50118;53.232;8.252;2023-07-24T12:30:21;99881.75;;;26.28;56.24
58243;BME280;50118;53.232;8.252;2023-07-24T12:32:47;99887.50;;;26.57;55.90
58243;BME280;50118;53.232;8.252;2023-07-24T12:35:12;99892.94;;;26.26;57.20
58243;BME280;50118;53.232;8.252;2023-07-24T12:37:38;99885.28;;;25.55;55.72
58243;BME280;50118;53.232;8.252;2023-07-24T12:40:07;99888.25;;;26.12;57.97
58243;BME280;50118;53.232;8.252;2023-07-24T12:42:33;99885.41;;;25.86;56.12
58243;BME280;50118;53.232;8.252;2023-07-24T12:44:58;99892.00;;;25.32;58.31
58243;BME280;50118;53.232;8.252;2023-07-24T12:47:24;99888.97;;;25.28;58.47
58243;BME280;50118;53.232;8.252;2023-07-24T12:49:49;99874.56;;;24.95;58.57